Time;durP1;ratioP1;P1;durP2;ratioP2;P2;SDS_P1;SDS_P2;PMS_P1;PMS_P2;Temp;Humidity;BMP_temperature;BMP_pressure;BME280_temperature;BME280_humidity;BME280_pressure;Samples;Min_cycle;Max_cycle;Signal;HPM_P1;HPM_P2
2021/06/28 00:00:42;;;;;;;10.45;9.55;;;20.80;99.90;;;;;;5038069;28;20072;-91
2021/06/28 00:03:09;;;;;;;10.68;9.68;;;20.70;99.90;;;;;;5052589;28;20030;-91
2021/06/28 00:05:35;;;;;;;10.57;9.57;;;20.70;99.90;;;;;;5037285;28;20116;-90
2021/06/28 00:08:01;;;;;;;11.25;10.15;;;20.80;99.90;;;;;;5052398;28;20129;-91
2021/06/28 00:10:30;;;;;;;11.90;9.77;;;20.70;99.90;;;;;;5036463;28;20479;-91
2021/06/28 00:12:58;;;;;;;10.68;9.68;;;20.80;99.90;;;;;;5051752;28;20044;-90
2021/06/28 00:15:27;;;;;;;12.52;10.32;;;20.80;99.90;;;;;;5052467;28;20037;-91
2021/06/28 00:17:54;;;;;;;10.70;9.70;;;20.80;99.90;;;;;;5051927;28;20036;-91
2021/06/28 00:20:21;;;;;;;10.32;9.32;;;20.80;99.90;;;;;;5051636;28;20044;-91
2021/06/28 00:22:48;;;;;;;11.15;9.77;;;20.80;99.90;;;;;;5051873;28;20033;-91
2021/06/28 00:25:17;;;;;;;10.05;9.15;;;20.80;99.90;;;;;;5051579;28;20045;-92
2021/06/28 00:27:44;;;;;;;11.43;10.30;;;20.80;99.90;;;;;;5051062;28;20041;-91
2021/06/28 00:30:15;;;;;;;9.63;8.73;;;20.90;99.90;;;;;;5051428;28;20064;-91
2021/06/28 00:32:42;;;;;;;12.10;9.15;;;20.90;99.90;;;;;;5034870;28;20459;-90
2021/06/28 00:35:09;;;;;;;9.30;8.50;;;21.00;99.90;;;;;;5051411;28;20033;-91
2021/06/28 00:37:35;;;;;;;9.07;8.18;;;21.00;99.90;;;;;;5051585;28;20037;-91
2021/06/28 00:40:02;;;;;;;9.52;8.60;;;21.00;99.90;;;;;;5051526;28;20057;-92
2021/06/28 00:42:28;;;;;;;10.10;9.02;;;21.10;99.90;;;;;;5051203;28;20492;-91
2021/06/28 00:44:54;;;;;;;10.32;8.32;;;21.20;99.90;;;;;;5051214;28;20044;-92
2021/06/28 00:47:21;;;;;;;8.60;7.80;;;21.20;99.90;;;;;;5051453;28;20049;-91
2021/06/28 00:49:47;;;;;;;8.35;7.65;;;21.20;99.90;;;;;;5051203;28;20121;-91
2021/06/28 00:52:14;;;;;;;8.38;7.53;;;21.10;99.90;;;;;;5051218;28;20037;-90
2021/06/28 00:54:41;;;;;;;8.43;6.85;;;21.00;99.90;;;;;;5051200;28;20434;-91
2021/06/28 00:57:07;;;;;;;8.20;7.38;;;21.00;99.90;;;;;;5051045;28;20532;-91
2021/06/28 00:59:34;;;;;;;8.60;7.57;;;21.00;99.90;;;;;;5052972;28;20509;-90
2021/06/28 01:02:02;;;;;;;7.93;7.13;;;20.90;99.90;;;;;;5051350;28;20041;-91
2021/06/28 01:04:31;;;;;;;8.05;7.35;;;20.90;99.90;;;;;;5050906;28;20052;-91
2021/06/28 01:06:57;;;;;;;9.00;7.35;;;20.80;99.90;;;;;;5050786;28;20111;-91
2021/06/28 01:09:23;;;;;;;7.93;7.13;;;20.70;99.90;;;;;;5050663;28;20486;-91
2021/06/28 01:11:49;;;;;;;8.98;8.00;;;20.70;99.90;;;;;;5050671;28;20533;-91
2021/06/28 01:14:17;;;;;;;9.80;7.07;;;20.60;99.90;;;;;;5050648;28;20054;-91
2021/06/28 01:16:43;;;;;;;9.93;7.60;;;20.60;99.90;;;;;;5035384;28;20065;-91
2021/06/28 01:19:13;;;;;;;8.50;7.20;;;20.50;99.90;;;;;;5050577;28;20045;-92
2021/06/28 01:21:41;;;;;;;8.68;7.80;;;20.50;99.90;;;;;;5050764;28;20096;-92
2021/06/28 01:24:07;;;;;;;7.82;7.13;;;20.40;99.90;;;;;;5050399;28;20102;-91
2021/06/28 01:26:33;;;;;;;8.40;7.60;;;20.40;99.90;;;;;;5050608;28;20046;-90
2021/06/28 01:28:59;;;;;;;8.07;7.25;;;20.40;99.90;;;;;;5050374;28;20046;-92
2021/06/28 01:31:24;;;;;;;8.00;7.25;;;20.30;99.90;;;;;;5050372;28;20045;-90
2021/06/28 01:33:50;;;;;;;9.35;7.63;;;20.30;99.90;;;;;;5050755;28;20037;-91
2021/06/28 01:36:16;;;;;;;9.20;7.47;;;20.30;99.90;;;;;;5050831;28;20045;-91
2021/06/28 01:38:41;;;;;;;8.45;7.65;;;20.30;99.90;;;;;;5050383;28;20120;-92
2021/06/28 01:41:07;;;;;;;10.60;7.35;;;20.20;99.90;;;;;;5050549;28;20041;-91
2021/06/28 01:43:33;;;;;;;8.20;7.40;;;20.20;99.90;;;;;;5050001;28;20041;-91
2021/06/28 01:45:59;;;;;;;7.95;7.15;;;20.30;99.90;;;;;;5057439;28;20038;-91
2021/06/28 01:48:25;;;;;;;7.00;6.40;;;20.30;99.90;;;;;;5050760;28;20053;-91
2021/06/28 01:50:52;;;;;;;7.85;7.10;;;20.40;99.90;;;;;;5049899;28;20033;-91
2021/06/28 01:53:18;;;;;;;8.07;7.28;;;20.40;99.90;;;;;;5049988;28;20041;-91
2021/06/28 01:55:44;;;;;;;8.00;7.20;;;20.40;99.90;;;;;;5033120;28;20033;-92
2021/06/28 01:58:13;;;;;;;8.10;7.30;;;20.50;99.90;;;;;;5050102;28;20137;-91
2021/06/28 02:00:51;;;;;;;8.23;7.43;;;20.40;99.90;;;;;;5051192;28;20124;-91
2021/06/28 02:03:22;;;;;;;7.30;6.60;;;20.50;99.90;;;;;;5049712;28;20037;-91
2021/06/28 02:05:52;;;;;;;8.73;7.55;;;20.50;99.90;;;;;;5049603;28;20038;-91
2021/06/28 02:08:19;;;;;;;7.85;7.05;;;20.50;99.90;;;;;;5049642;28;20073;-91
2021/06/28 02:10:51;;;;;;;7.72;7.03;;;20.50;99.90;;;;;;5049552;28;20083;-91
2021/06/28 02:13:25;;;;;;;7.78;7.07;;;20.50;99.90;;;;;;5032926;28;20033;-91
2021/06/28 02:15:53;;;;;;;7.30;6.65;;;20.50;99.90;;;;;;5049530;28;20036;-91
2021/06/28 02:18:21;;;;;;;7.75;7.05;;;20.50;99.90;;;;;;5049748;28;20067;-92
2021/06/28 02:20:48;;;;;;;8.20;7.50;;;20.50;99.90;;;;;;5049307;28;20498;-92
2021/06/28 02:23:22;;;;;;;8.57;7.75;;;20.50;99.90;;;;;;5049631;28;20076;-91
2021/06/28 02:25:54;;;;;;;;;;;20.50;99.90;;;;;;5049727;28;20084;-91
2021/06/28 02:28:20;;;;;;;9.40;8.38;;;20.40;99.90;;;;;;5033462;28;19919;-92
2021/06/28 02:30:46;;;;;;;8.90;8.00;;;20.50;99.90;;;;;;5049371;28;20461;-91
2021/06/28 02:33:12;;;;;;;8.73;7.82;;;20.50;99.90;;;;;;5049125;28;20124;-92
2021/06/28 02:35:38;;;;;;;8.98;8.07;;;20.50;99.90;;;;;;5033947;28;20061;-91
2021/06/28 02:38:05;;;;;;;9.05;7.97;;;20.50;99.90;;;;;;5033692;28;20112;-91
2021/06/28 02:40:31;;;;;;;9.82;8.82;;;20.50;99.90;;;;;;5048976;28;20048;-92
2021/06/28 02:42:57;;;;;;;8.85;8.00;;;20.50;99.90;;;;;;5048839;28;20120;-91
2021/06/28 02:45:23;;;;;;;9.82;8.82;;;20.50;99.90;;;;;;5049558;28;20136;-90
2021/06/28 02:47:48;;;;;;;10.48;8.30;;;20.50;99.90;;;;;;5038341;28;20126;-91
2021/06/28 02:50:15;;;;;;;8.65;7.93;;;20.60;99.90;;;;;;5032581;28;20569;-91
2021/06/28 02:52:41;;;;;;;8.15;7.45;;;20.70;99.90;;;;;;5048888;28;20103;-92
2021/06/28 02:55:08;;;;;;;10.85;8.63;;;20.80;99.90;;;;;;5048695;28;20510;-91
2021/06/28 02:57:34;;;;;;;10.00;8.90;;;20.90;99.90;;;;;;5049477;28;20034;-92
2021/06/28 03:00:01;;;;;;;9.10;7.68;;;20.90;99.90;;;;;;5050350;28;20034;-91
2021/06/28 03:02:27;;;;;;;8.90;8.20;;;21.00;99.90;;;;;;5034525;28;20068;-91
2021/06/28 03:04:53;;;;;;;9.57;8.55;;;21.00;99.90;;;;;;5049221;28;20030;-90
2021/06/28 03:07:18;;;;;;;9.23;8.10;;;21.10;99.90;;;;;;5049106;28;20049;-92
2021/06/28 03:09:44;;;;;;;8.25;7.50;;;21.10;99.90;;;;;;5032092;28;20026;-91
2021/06/28 03:12:12;;;;;;;8.73;7.95;;;21.20;99.90;;;;;;5033709;28;20041;-91
2021/06/28 03:14:39;;;;;;;8.43;7.63;;;21.30;99.90;;;;;;5048621;28;20038;-91
2021/06/28 03:17:04;;;;;;;8.07;7.38;;;21.40;99.90;;;;;;5049798;28;20068;-91
2021/06/28 03:19:30;;;;;;;8.48;7.68;;;21.50;99.90;;;;;;5051508;28;20425;-91
2021/06/28 03:21:56;;;;;;;8.75;7.85;;;21.60;99.90;;;;;;5048936;28;20091;-91
2021/06/28 03:24:22;;;;;;;8.55;7.78;;;21.70;99.90;;;;;;5048873;28;20037;-88
2021/06/28 03:26:47;;;;;;;8.43;7.63;;;21.70;99.90;;;;;;5048505;28;20072;-88
2021/06/28 03:29:13;;;;;;;7.95;7.15;;;21.70;99.90;;;;;;5049778;28;20030;-87
2021/06/28 03:31:39;;;;;;;7.63;6.82;;;21.80;99.90;;;;;;5048584;28;20175;-88
2021/06/28 03:34:04;;;;;;;8.27;7.30;;;21.80;99.90;;;;;;5048409;28;20474;-88
2021/06/28 03:36:30;;;;;;;8.25;7.30;;;21.80;99.90;;;;;;5049694;28;20042;-90
2021/06/28 03:38:56;;;;;;;8.77;7.25;;;21.90;99.90;;;;;;5048774;28;20035;-88
2021/06/28 03:41:22;;;;;;;8.43;7.63;;;22.00;99.90;;;;;;5033357;28;20041;-87
2021/06/28 03:43:47;;;;;;;8.05;7.35;;;21.90;99.90;;;;;;5048390;28;20025;-88
2021/06/28 03:46:13;;;;;;;9.00;8.18;;;22.00;99.90;;;;;;5048603;28;20038;-89
2021/06/28 03:48:39;;;;;;;10.43;8.15;;;21.90;99.90;;;;;;5031342;28;20528;-88
2021/06/28 03:51:05;;;;;;;9.07;8.18;;;21.90;99.90;;;;;;5031500;28;20038;-88
2021/06/28 03:53:30;;;;;;;9.00;8.10;;;21.90;99.90;;;;;;5046326;28;20033;-88
2021/06/28 03:55:56;;;;;;;8.63;7.82;;;21.90;99.90;;;;;;5046117;28;20129;-87
2021/06/28 03:58:22;;;;;;;8.57;7.82;;;21.90;99.90;;;;;;5031426;28;20033;-90
2021/06/28 04:00:48;;;;;;;8.30;7.50;;;21.90;99.90;;;;;;5048164;28;20088;-90
2021/06/28 04:03:15;;;;;;;11.40;7.65;;;21.90;99.90;;;;;;5048395;28;20071;-90
2021/06/28 04:05:41;;;;;;;7.70;7.00;;;21.90;99.90;;;;;;5049974;28;20041;-89
2021/06/28 04:08:07;;;;;;;7.75;7.05;;;21.90;99.90;;;;;;5033279;28;20486;-89
2021/06/28 04:10:33;;;;;;;8.57;7.57;;;22.00;99.90;;;;;;5050877;28;20127;-90
2021/06/28 04:12:59;;;;;;;8.82;7.45;;;22.00;99.90;;;;;;5050513;28;20034;-89
2021/06/28 04:15:24;;;;;;;7.95;7.25;;;22.10;99.90;;;;;;5050633;28;20080;-89
2021/06/28 04:17:54;;;;;;;8.15;7.45;;;22.20;99.90;;;;;;5033434;28;20029;-89
2021/06/28 04:20:23;;;;;;;8.38;6.68;;;22.30;99.90;;;;;;5049891;28;20466;-89
2021/06/28 04:22:49;;;;;;;7.60;6.93;;;22.50;99.90;;;;;;5050359;28;20034;-88
2021/06/28 04:25:17;;;;;;;7.00;6.40;;;22.50;99.90;;;;;;5049792;28;20053;-89
2021/06/28 04:27:43;;;;;;;7.70;7.00;;;22.70;99.90;;;;;;5035551;28;20506;-90
2021/06/28 04:30:11;;;;;;;7.75;6.65;;;22.80;99.50;;;;;;5049835;28;20045;-90
2021/06/28 04:32:37;;;;;;;7.25;6.55;;;22.90;98.80;;;;;;5033305;28;20040;-90
2021/06/28 04:35:11;;;;;;;6.70;6.10;;;22.80;98.10;;;;;;5050922;28;20045;-90
2021/06/28 04:37:37;;;;;;;6.50;5.90;;;22.80;97.80;;;;;;5034410;28;20056;-91
2021/06/28 04:40:09;;;;;;;7.93;5.72;;;22.80;97.80;;;;;;5049818;28;20511;-91
2021/06/28 04:42:35;;;;;;;6.50;5.90;;;22.80;97.80;;;;;;5033926;28;20069;-91
2021/06/28 04:45:00;;;;;;;6.93;6.35;;;22.80;97.40;;;;;;5034567;28;20038;-92
2021/06/28 04:47:26;;;;;;;6.70;6.10;;;22.80;97.10;;;;;;5050651;28;20046;-90
2021/06/28 04:49:52;;;;;;;7.65;6.40;;;22.80;96.80;;;;;;5060398;28;20038;-90
2021/06/28 04:52:18;;;;;;;7.35;6.65;;;22.90;96.00;;;;;;5068365;28;20044;-91
2021/06/28 04:54:44;;;;;;;7.30;6.70;;;22.80;95.50;;;;;;5052291;28;20380;-91
2021/06/28 04:57:10;;;;;;;10.13;6.90;;;22.80;95.80;;;;;;5036540;28;20091;-92
2021/06/28 04:59:35;;;;;;;7.20;6.50;;;22.90;95.70;;;;;;5052754;28;20116;-89
2021/06/28 05:02:01;;;;;;;8.48;6.47;;;23.00;95.60;;;;;;5051941;28;20060;-90
2021/06/28 05:04:27;;;;;;;7.85;6.25;;;23.00;95.00;;;;;;5051255;28;20043;-92
2021/06/28 05:06:52;;;;;;;6.68;6.07;;;23.10;94.80;;;;;;5034898;28;20478;-90
2021/06/28 05:09:20;;;;;;;8.27;7.47;;;23.30;94.70;;;;;;5062909;28;20034;-91
2021/06/28 05:11:46;;;;;;;8.57;7.35;;;23.30;93.70;;;;;;5056534;28;20513;-91
2021/06/28 05:14:12;;;;;;;7.75;7.05;;;23.40;93.70;;;;;;5035758;28;20041;-91
2021/06/28 05:16:38;;;;;;;8.65;7.45;;;23.50;93.40;;;;;;5051150;28;20398;-91
2021/06/28 05:19:03;;;;;;;7.63;6.60;;;23.60;93.00;;;;;;5034468;28;20080;-90
2021/06/28 05:21:29;;;;;;;9.05;7.43;;;23.60;92.80;;;;;;5035070;28;20041;-91
2021/06/28 05:23:55;;;;;;;7.95;7.25;;;23.70;92.10;;;;;;5034581;28;20045;-91
2021/06/28 05:26:21;;;;;;;8.55;7.85;;;23.70;91.60;;;;;;5051678;28;20125;-91
2021/06/28 05:28:46;;;;;;;7.85;7.15;;;23.70;91.50;;;;;;5034121;28;20072;-91
2021/06/28 05:31:12;;;;;;;7.05;6.45;;;23.70;91.40;;;;;;5052470;28;20111;-90
2021/06/28 05:33:38;;;;;;;7.40;5.95;;;23.70;91.20;;;;;;5051323;28;20029;-91
2021/06/28 05:36:06;;;;;;;6.47;5.88;;;23.80;91.20;;;;;;5050748;28;20577;-92
2021/06/28 05:38:32;;;;;;;7.38;5.72;;;23.80;91.20;;;;;;5052460;28;20057;-92
2021/06/28 05:40:58;;;;;;;6.40;5.78;;;23.70;90.50;;;;;;5051584;28;20041;-90
2021/06/28 05:43:24;;;;;;;6.53;5.93;;;23.60;90.70;;;;;;5051862;28;20029;-91
2021/06/28 05:45:50;;;;;;;7.10;6.40;;;23.60;90.80;;;;;;5050534;28;20135;-91
2021/06/28 05:48:15;;;;;;;5.50;5.10;;;23.60;91.10;;;;;;5036070;28;20134;-91
2021/06/28 05:50:41;;;;;;;6.45;5.85;;;23.70;90.90;;;;;;5052747;28;20044;-90
2021/06/28 05:53:07;;;;;;;6.57;5.32;;;23.80;90.40;;;;;;5051382;28;20068;-90
2021/06/28 05:55:33;;;;;;;7.68;5.65;;;23.80;90.40;;;;;;5061893;28;20045;-90
2021/06/28 05:57:58;;;;;;;6.80;6.18;;;23.90;90.10;;;;;;5051445;28;20034;-91
2021/06/28 06:00:24;;;;;;;6.35;5.85;;;24.10;89.50;;;;;;5052687;28;20041;-90
2021/06/28 06:02:51;;;;;;;6.47;5.32;;;24.20;87.80;;;;;;5049776;28;20113;-91
2021/06/28 06:05:17;;;;;;;5.35;4.93;;;24.30;87.40;;;;;;5049884;28;20036;-91
2021/06/28 06:07:43;;;;;;;5.90;5.40;;;24.50;86.90;;;;;;5050291;28;20076;-92
2021/06/28 06:10:12;;;;;;;6.22;5.63;;;25.00;86.80;;;;;;5051694;28;20034;-91
2021/06/28 06:12:39;;;;;;;5.93;5.43;;;25.60;84.10;;;;;;5051744;28;20561;-90
2021/06/28 06:15:09;;;;;;;5.70;5.20;;;26.00;81.30;;;;;;5050102;28;20426;-90
2021/06/28 06:17:35;;;;;;;5.45;4.97;;;26.30;79.30;;;;;;5050891;28;20456;-90
2021/06/28 06:20:01;;;;;;;5.55;5.03;;;26.60;77.70;;;;;;5050001;28;20029;-90
2021/06/28 06:22:27;;;;;;;6.30;5.15;;;26.70;76.50;;;;;;5050413;28;20037;-91
2021/06/28 06:24:53;;;;;;;6.13;5.53;;;26.80;75.40;;;;;;5035161;28;20040;-93
2021/06/28 06:27:19;;;;;;;8.57;6.03;;;26.80;73.80;;;;;;5050850;28;20077;-90
2021/06/28 06:29:45;;;;;;;5.72;5.22;;;26.80;73.80;;;;;;5052655;28;20099;-92
2021/06/28 06:32:12;;;;;;;5.80;5.30;;;26.90;73.60;;;;;;5050859;28;20136;-91
2021/06/28 06:34:38;;;;;;;6.60;5.35;;;27.10;73.10;;;;;;5049467;28;20092;-92
2021/06/28 06:37:04;;;;;;;5.57;5.07;;;27.40;73.10;;;;;;5049306;28;20069;-91
2021/06/28 06:39:31;;;;;;;5.93;5.28;;;27.60;71.90;;;;;;5050611;28;20037;-91
2021/06/28 06:41:57;;;;;;;6.78;6.20;;;27.80;70.50;;;;;;5053250;28;20474;-90
2021/06/28 06:44:23;;;;;;;6.82;5.60;;;27.80;69.40;;;;;;5056279;28;20072;-92
2021/06/28 06:46:49;;;;;;;5.80;5.30;;;27.80;69.20;;;;;;5053302;28;20049;-90
2021/06/28 06:49:14;;;;;;;5.35;4.85;;;27.90;69.40;;;;;;5049625;28;20453;-91
2021/06/28 06:51:40;;;;;;;5.65;4.50;;;28.10;69.90;;;;;;5050223;28;20076;-93
2021/06/28 06:54:06;;;;;;;5.18;4.28;;;28.40;68.80;;;;;;5052468;28;20030;-91
2021/06/28 06:56:33;;;;;;;4.57;4.07;;;28.60;67.50;;;;;;5053146;28;20049;-92
2021/06/28 06:58:59;;;;;;;4.40;4.00;;;28.80;66.90;;;;;;5052177;28;20044;-91
2021/06/28 07:01:24;;;;;;;3.50;3.30;;;29.30;67.10;;;;;;5057216;28;20042;-91
2021/06/28 07:03:51;;;;;;;4.13;3.78;;;30.00;66.50;;;;;;5053377;28;20445;-92
2021/06/28 07:06:17;;;;;;;4.30;3.95;;;30.50;64.50;;;;;;5051339;28;20046;-91
2021/06/28 07:08:43;;;;;;;4.43;4.03;;;30.50;63.00;;;;;;5052655;28;20037;-91
2021/06/28 07:11:12;;;;;;;3.80;3.50;;;30.30;62.60;;;;;;5036661;28;20123;-92
2021/06/28 07:13:43;;;;;;;3.83;3.50;;;30.20;62.50;;;;;;5052642;28;20124;-91
2021/06/28 07:16:10;;;;;;;4.28;3.88;;;30.30;63.50;;;;;;5054735;28;20053;-91
2021/06/28 07:18:36;;;;;;;3.78;3.47;;;30.60;62.60;;;;;;5049618;28;20084;-92
2021/06/28 07:21:03;;;;;;;3.85;2.67;;;31.00;63.20;;;;;;5050921;28;20053;-91
2021/06/28 07:23:30;;;;;;;3.22;3.03;;;31.60;61.80;;;;;;5050620;28;20113;-90
2021/06/28 07:25:56;;;;;;;5.28;3.38;;;31.80;60.90;;;;;;5050077;28;20049;-90
2021/06/28 07:28:23;;;;;;;3.55;3.25;;;31.90;60.50;;;;;;5049744;28;20053;-92
2021/06/28 07:30:48;;;;;;;4.38;3.83;;;32.20;60.00;;;;;;5052389;28;20037;-93
2021/06/28 07:33:15;;;;;;;3.67;3.38;;;32.10;57.80;;;;;;5050526;28;20044;-92
2021/06/28 07:35:41;;;;;;;4.60;3.38;;;31.80;57.80;;;;;;5050711;28;20041;-90
2021/06/28 07:38:06;;;;;;;4.40;3.60;;;31.10;58.20;;;;;;5053596;28;20109;-93
2021/06/28 07:40:32;;;;;;;4.45;3.38;;;30.50;59.10;;;;;;5056492;28;20038;-91
2021/06/28 07:42:58;;;;;;;4.15;3.40;;;30.30;59.60;;;;;;5053967;28;20038;-94
2021/06/28 07:45:24;;;;;;;3.08;2.88;;;30.50;60.10;;;;;;5055778;28;20041;-93
2021/06/28 07:47:53;;;;;;;4.35;2.63;;;31.10;60.30;;;;;;5054130;28;20052;-92
2021/06/28 07:50:19;;;;;;;3.67;2.72;;;31.40;58.70;;;;;;5052946;28;20041;-92
2021/06/28 07:52:45;;;;;;;2.83;2.60;;;31.50;58.20;;;;;;5054029;28;20132;-92
2021/06/28 07:55:13;;;;;;;3.58;2.95;;;31.80;57.80;;;;;;5036574;28;20068;-91
2021/06/28 07:57:39;;;;;;;2.63;2.40;;;32.10;57.80;;;;;;5052130;28;20491;-91
2021/06/28 08:00:11;;;;;;;4.28;2.80;;;32.30;57.20;;;;;;5055402;28;20156;-92
2021/06/28 08:02:37;;;;;;;3.67;3.38;;;32.10;56.00;;;;;;5057389;28;20038;-91
2021/06/28 08:05:05;;;;;;;3.33;3.03;;;31.50;56.10;;;;;;5036456;28;20033;-93
2021/06/28 08:07:33;;;;;;;3.58;2.95;;;31.20;57.30;;;;;;5053623;28;20061;-94
2021/06/28 08:10:00;;;;;;;3.55;3.25;;;31.70;58.60;;;;;;5059986;28;20505;-93
2021/06/28 08:12:25;;;;;;;4.55;3.10;;;32.50;57.70;;;;;;5055244;28;20037;-92
2021/06/28 08:14:51;;;;;;;4.13;2.60;;;33.30;56.60;;;;;;5052585;28;20438;-92
2021/06/28 08:17:17;;;;;;;3.85;2.65;;;33.60;55.40;;;;;;5059329;28;20116;-91
2021/06/28 08:19:46;;;;;;;2.40;2.30;;;33.70;54.30;;;;;;5059644;28;20109;-91
2021/06/28 08:22:12;;;;;;;3.97;2.40;;;34.20;54.60;;;;;;5054165;28;20030;-93
2021/06/28 08:24:38;;;;;;;2.80;2.60;;;34.30;53.10;;;;;;5053254;28;20064;-91
2021/06/28 08:27:04;;;;;;;3.35;2.50;;;34.00;52.70;;;;;;5051801;28;20135;-91
2021/06/28 08:29:29;;;;;;;2.60;2.20;;;33.40;53.10;;;;;;5053367;28;20545;-91
2021/06/28 08:31:55;;;;;;;2.80;2.60;;;33.00;53.70;;;;;;5057125;28;20033;-92
2021/06/28 08:34:23;;;;;;;3.60;2.45;;;32.80;53.90;;;;;;5055517;28;20045;-93
2021/06/28 08:36:49;;;;;;;2.92;2.63;;;33.20;55.10;;;;;;5052909;28;20033;-92
2021/06/28 08:39:18;;;;;;;2.65;2.45;;;34.20;54.20;;;;;;5056948;28;20067;-93
2021/06/28 08:41:52;;;;;;;2.60;2.40;;;35.10;52.40;;;;;;5061555;28;20060;-93
2021/06/28 08:44:19;;;;;;;2.30;2.20;;;35.70;51.50;;;;;;5071077;22;20076;-92
2021/06/28 08:46:45;;;;;;;2.50;2.20;;;35.70;50.80;;;;;;5048677;28;20049;-93
2021/06/28 08:49:11;;;;;;;2.80;2.60;;;35.10;49.40;;;;;;5044918;28;20059;-92
2021/06/28 08:51:37;;;;;;;2.45;2.28;;;34.40;50.10;;;;;;5044716;28;20037;-92
2021/06/28 08:54:07;;;;;;;2.08;1.98;;;34.20;51.60;;;;;;5044956;28;20043;-92
2021/06/28 08:56:34;;;;;;;2.75;2.25;;;34.70;51.80;;;;;;5048107;28;20377;-92
2021/06/28 08:59:02;;;;;;;2.33;2.13;;;35.50;51.30;;;;;;5044871;28;20036;-91
2021/06/28 09:01:28;;;;;;;2.88;2.10;;;36.30;50.80;;;;;;5046609;28;20021;-92
2021/06/28 09:03:54;;;;;;;2.28;2.10;;;37.00;50.00;;;;;;5045838;28;20037;-93
2021/06/28 09:06:28;;;;;;;2.45;2.25;;;37.10;48.40;;;;;;5043811;28;20052;-92
2021/06/28 09:09:03;;;;;;;2.60;2.40;;;36.50;47.50;;;;;;5063141;28;20053;-91
2021/06/28 09:11:33;;;;;;;3.35;2.65;;;35.30;47.80;;;;;;5044596;28;20045;-92
2021/06/28 09:14:02;;;;;;;2.60;2.40;;;34.20;48.60;;;;;;5042540;28;20033;-91
2021/06/28 09:16:30;;;;;;;2.58;2.38;;;33.30;49.70;;;;;;5044062;28;20094;-92
2021/06/28 09:18:58;;;;;;;3.58;2.63;;;32.70;50.80;;;;;;5043403;28;20041;-92
2021/06/28 09:21:32;;;;;;;2.47;2.28;;;31.90;51.60;;;;;;5047065;28;20029;-92
2021/06/28 09:24:01;;;;;;;3.03;2.72;;;31.40;52.60;;;;;;5044997;28;20033;-92
2021/06/28 09:26:36;;;;;;;2.90;2.60;;;31.10;53.40;;;;;;5043550;28;20037;-93
2021/06/28 09:29:08;;;;;;;3.00;2.80;;;31.00;54.50;;;;;;5041315;28;20080;-92
2021/06/28 09:31:41;;;;;;;2.42;2.33;;;31.90;55.20;;;;;;5046811;28;20041;-91
2021/06/28 09:34:15;;;;;;;2.55;2.35;;;33.10;54.30;;;;;;5066062;28;20102;-92
2021/06/28 09:36:50;;;;;;;2.50;2.30;;;34.10;52.20;;;;;;5048140;28;20112;-92
2021/06/28 09:39:18;;;;;;;2.75;2.10;;;34.10;49.80;;;;;;5049658;28;20036;-92
2021/06/28 09:41:47;;;;;;;2.60;2.40;;;33.60;49.90;;;;;;5048040;28;20116;-93
2021/06/28 09:44:13;;;;;;;2.63;2.10;;;33.40;50.80;;;;;;5045840;28;20498;-92
2021/06/28 09:46:40;;;;;;;2.92;2.70;;;33.50;50.90;;;;;;5046042;28;20043;-92
2021/06/28 09:49:16;;;;;;;2.40;2.20;;;33.50;50.70;;;;;;5048535;28;20063;-91
2021/06/28 09:51:42;;;;;;;2.42;2.33;;;33.80;51.30;;;;;;5045367;28;20048;-92
2021/06/28 09:54:08;;;;;;;2.20;2.05;;;34.50;51.20;;;;;;5047633;28;20108;-93
2021/06/28 09:56:54;;;;;;;2.30;2.05;;;35.70;50.60;;;;;;5065050;28;20098;-92
2021/06/28 09:59:21;;;;;;;3.33;2.10;;;36.10;48.40;;;;;;5050781;28;20061;-92
2021/06/28 10:02:09;;;;;;;2.85;2.20;;;35.50;47.80;;;;;;5045110;28;20457;-92
2021/06/28 10:04:37;;;;;;;4.07;2.50;;;34.80;48.10;;;;;;5032162;28;20059;-92
2021/06/28 10:07:29;;;;;;;2.45;2.28;;;34.60;49.80;;;;;;5048282;28;20119;-92
2021/06/28 10:10:07;;;;;;;2.40;2.20;;;35.50;50.10;;;;;;5061117;28;20467;-92
2021/06/28 10:12:34;;;;;;;3.10;2.35;;;36.40;48.60;;;;;;5064738;28;20047;-91
2021/06/28 10:15:00;;;;;;;2.40;2.20;;;36.30;47.00;;;;;;5047010;28;20121;-92
2021/06/28 10:17:30;;;;;;;3.63;2.30;;;35.30;46.80;;;;;;5045617;28;20041;-92
2021/06/28 10:19:57;;;;;;;2.22;2.13;;;34.30;47.70;;;;;;5044108;28;20037;-91
2021/06/28 10:22:23;;;;;;;2.50;2.30;;;33.90;48.90;;;;;;5031542;28;20037;-92
2021/06/28 10:24:49;;;;;;;2.47;2.28;;;34.30;49.30;;;;;;5047002;28;20044;-91
2021/06/28 10:27:15;;;;;;;2.50;2.30;;;35.00;49.20;;;;;;5045146;28;20091;-92
2021/06/28 10:29:42;;;;;;;4.20;2.40;;;35.90;47.80;;;;;;5045853;28;20025;-92
2021/06/28 10:32:12;;;;;;;2.95;2.20;;;36.80;47.20;;;;;;5044851;28;20123;-92
2021/06/28 10:34:39;;;;;;;3.63;2.33;;;37.30;45.90;;;;;;5041494;28;20036;-92
2021/06/28 10:37:47;;;;;;;2.50;2.30;;;37.50;45.50;;;;;;5048740;28;20021;-92
2021/06/28 10:40:19;;;;;;;4.95;2.15;;;37.10;44.80;;;;;;5045924;28;20039;-92
2021/06/28 10:42:49;;;;;;;2.35;2.15;;;36.30;45.40;;;;;;5043790;28;20448;-92
2021/06/28 10:45:17;;;;;;;2.88;2.50;;;36.10;47.00;;;;;;5043700;28;20036;-92
2021/06/28 10:48:06;;;;;;;2.10;1.90;;;35.90;45.70;;;;;;5041560;28;20049;-92
2021/06/28 10:51:05;;;;;;;2.55;2.33;;;35.10;46.30;;;;;;5045181;28;20037;-92
2021/06/28 10:53:34;;;;;;;2.70;2.50;;;35.20;47.60;;;;;;5028546;28;20120;-91
2021/06/28 10:56:25;;;;;;;2.30;2.20;;;35.80;47.80;;;;;;5061984;28;20037;-92
2021/06/28 10:58:57;;;;;;;2.10;2.00;;;36.20;46.60;;;;;;5063947;28;20037;-92
2021/06/28 11:01:41;;;;;;;2.30;2.10;;;36.10;46.90;;;;;;5062104;28;20032;-91
2021/06/28 11:04:15;;;;;;;4.22;2.00;;;36.50;46.60;;;;;;5045900;28;20477;-91
2021/06/28 11:07:00;;;;;;;2.10;1.90;;;37.30;46.80;;;;;;5045642;28;20033;-93
2021/06/28 11:09:51;;;;;;;1.70;1.60;;;38.00;44.90;;;;;;5069388;28;20095;-92
2021/06/28 11:12:27;;;;;;;1.63;1.52;;;37.70;45.00;;;;;;5049937;28;20045;-93
2021/06/28 11:15:09;;;;;;;1.80;1.70;;;36.90;45.10;;;;;;5044357;28;20087;-93
2021/06/28 11:17:41;;;;;;;1.90;1.60;;;35.70;45.60;;;;;;5046107;28;20049;-91
2021/06/28 11:20:30;;;;;;;1.95;1.85;;;34.80;46.80;;;;;;5071053;28;20041;-92
2021/06/28 11:23:16;;;;;;;2.25;1.98;;;34.60;48.30;;;;;;5060692;28;20052;-92
2021/06/28 11:25:51;;;;;;;1.75;1.65;;;35.70;48.30;;;;;;5042547;28;20099;-92
2021/06/28 11:28:32;;;;;;;2.25;2.05;;;36.60;46.90;;;;;;5046360;28;20110;-92
2021/06/28 11:31:00;;;;;;;1.90;1.80;;;36.50;43.90;;;;;;5059634;28;20075;-91
2021/06/28 11:33:56;;;;;;;1.73;1.63;;;35.60;45.00;;;;;;5046062;28;20033;-91
2021/06/28 11:36:35;;;;;;;2.20;2.00;;;34.70;45.70;;;;;;5046029;28;20043;-92
2021/06/28 11:39:24;;;;;;;2.90;1.70;;;34.10;46.80;;;;;;5039130;28;20029;-91
2021/06/28 11:42:16;;;;;;;1.80;1.70;;;34.70;47.50;;;;;;5040861;28;20128;-92
2021/06/28 11:45:05;;;;;;;3.08;1.77;;;35.60;46.90;;;;;;5045042;28;20478;-91
2021/06/28 11:47:50;;;;;;;3.45;1.75;;;36.30;46.20;;;;;;5044370;28;20052;-93
2021/06/28 11:50:26;;;;;;;3.13;1.50;;;37.00;44.90;;;;;;5058557;28;20059;-91
2021/06/28 11:52:58;;;;;;;1.90;1.80;;;37.80;44.60;;;;;;5067494;28;20132;-92
2021/06/28 11:55:24;;;;;;;1.90;1.80;;;38.50;43.70;;;;;;5043085;28;20041;-91
2021/06/28 11:57:54;;;;;;;1.90;1.80;;;39.10;43.50;;;;;;5039792;28;20507;-91
2021/06/28 12:00:22;;;;;;;1.65;1.55;;;39.20;42.90;;;;;;5046443;28;20037;-93
2021/06/28 12:03:25;;;;;;;1.60;1.50;;;39.50;44.00;;;;;;5044442;28;20037;-91
2021/06/28 12:05:51;;;;;;;2.70;1.60;;;40.40;42.70;;;;;;4983184;28;20050;-92
2021/06/28 12:08:25;;;;;;;2.25;1.85;;;41.00;41.90;;;;;;5029387;28;20482;-92
2021/06/28 12:10:59;;;;;;;2.85;1.95;;;41.20;41.10;;;;;;5064311;28;20044;-90
2021/06/28 12:13:33;;;;;;;3.67;1.65;;;41.20;40.60;;;;;;5044559;28;20405;-92
2021/06/28 12:16:21;;;;;;;2.88;1.70;;;41.30;40.70;;;;;;5059083;28;20136;-91
2021/06/28 12:18:48;;;;;;;1.83;1.60;;;41.20;40.20;;;;;;5045737;28;20092;-91
2021/06/28 12:21:31;;;;;;;2.38;1.63;;;40.30;40.60;;;;;;5041575;28;20060;-91
2021/06/28 12:24:16;;;;;;;2.40;1.60;;;39.30;41.70;;;;;;5038591;28;20033;-91
2021/06/28 12:27:06;;;;;;;1.70;1.60;;;39.20;42.70;;;;;;5046229;28;20124;-92
2021/06/28 12:29:46;;;;;;;1.77;1.67;;;39.70;42.20;;;;;;5043655;28;20045;-92
2021/06/28 12:32:22;;;;;;;1.98;1.80;;;39.10;42.10;;;;;;5044730;28;20035;-91
2021/06/28 12:35:01;;;;;;;2.10;2.00;;;38.20;42.20;;;;;;5043015;28;20029;-91
2021/06/28 12:37:33;;;;;;;2.08;1.70;;;37.10;43.20;;;;;;5047996;28;20056;-92
2021/06/28 12:40:23;;;;;;;1.85;1.75;;;36.40;44.40;;;;;;5048378;28;20041;-91
2021/06/28 12:42:53;;;;;;;2.97;1.77;;;36.80;45.20;;;;;;5050215;28;20068;-92
2021/06/28 12:45:25;;;;;;;2.13;1.70;;;37.90;45.00;;;;;;5047702;28;20041;-92
2021/06/28 12:47:55;;;;;;;2.25;2.00;;;38.50;43.70;;;;;;5049458;28;20048;-92
2021/06/28 12:50:25;;;;;;;1.80;1.70;;;38.20;43.10;;;;;;5046066;28;20550;-93
2021/06/28 12:52:51;;;;;;;3.20;1.80;;;37.30;43.60;;;;;;5048715;28;20037;-92
2021/06/28 12:55:23;;;;;;;2.80;1.70;;;36.80;44.60;;;;;;5051141;28;20075;-91